sensor_id;sensor_type;location;lat;lon;timestamp;P1;durP1;ratioP1;P2;durP2;ratioP2
46355;SDS011;32066;49.474;11.106;2023-04-28T00:00:02;9.20;;;4.15;;
46355;SDS011;32066;49.474;11.106;2023-04-28T00:02:31;9.55;;;4.40;;
46355;SDS011;32066;49.474;11.106;2023-04-28T00:05:00;11.07;;;4.28;;
46355;SDS011;32066;49.474;11.106;2023-04-28T00:07:29;11.70;;;5.07;;
46355;SDS011;32066;49.474;11.106;2023-04-28T00:10:00;9.40;;;4.40;;
46355;SDS011;32066;49.474;11.106;2023-04-28T00:12:28;10.30;;;4.72;;
46355;SDS011;32066;49.474;11.106;2023-04-28T00:14:57;8.10;;;4.40;;
46355;SDS011;32066;49.474;11.106;2023-04-28T00:17:25;8.40;;;4.57;;
46355;SDS011;32066;49.474;11.106;2023-04-28T00:19:54;8.27;;;4.68;;
46355;SDS011;32066;49.474;11.106;2023-04-28T00:22:23;9.68;;;4.20;;
46355;SDS011;32066;49.474;11.106;2023-04-28T00:24:51;10.40;;;4.57;;
46355;SDS011;32066;49.474;11.106;2023-04-28T00:27:22;10.10;;;3.75;;
46355;SDS011;32066;49.474;11.106;2023-04-28T00:29:51;8.93;;;3.97;;
46355;SDS011;32066;49.474;11.106;2023-04-28T00:32:21;10.77;;;4.45;;
46355;SDS011;32066;49.474;11.106;2023-04-28T00:34:49;7.95;;;4.13;;
46355;SDS011;32066;49.474;11.106;2023-04-28T00:37:18;12.02;;;5.07;;
46355;SDS011;32066;49.474;11.106;2023-04-28T00:39:47;9.63;;;4.50;;
46355;SDS011;32066;49.474;11.106;2023-04-28T00:42:15;9.27;;;4.40;;
46355;SDS011;32066;49.474;11.106;2023-04-28T00:44:47;9.05;;;4.38;;
46355;SDS011;32066;49.474;11.106;2023-04-28T00:47:16;8.55;;;4.43;;
46355;SDS011;32066;49.474;11.106;2023-04-28T00:49:45;8.57;;;4.90;;
46355;SDS011;32066;49.474;11.106;2023-04-28T00:52:14;8.57;;;4.07;;
46355;SDS011;32066;49.474;11.106;2023-04-28T00:54:43;9.98;;;4.10;;
46355;SDS011;32066;49.474;11.106;2023-04-28T00:57:12;13.70;;;5.07;;
46355;SDS011;32066;49.474;11.106;2023-04-28T00:59:41;8.57;;;4.30;;
46355;SDS011;32066;49.474;11.106;2023-04-28T01:02:12;10.23;;;4.45;;
46355;SDS011;32066;49.474;11.106;2023-04-28T01:04:42;10.15;;;4.40;;
46355;SDS011;32066;49.474;11.106;2023-04-28T01:07:12;9.32;;;5.05;;
46355;SDS011;32066;49.474;11.106;2023-04-28T01:09:42;11.55;;;4.78;;
46355;SDS011;32066;49.474;11.106;2023-04-28T01:12:13;8.80;;;4.40;;
46355;SDS011;32066;49.474;11.106;2023-04-28T01:14:45;10.88;;;4.43;;
46355;SDS011;32066;49.474;11.106;2023-04-28T01:17:18;11.07;;;4.80;;
46355;SDS011;32066;49.474;11.106;2023-04-28T01:19:47;10.32;;;4.63;;
46355;SDS011;32066;49.474;11.106;2023-04-28T01:22:17;9.95;;;4.95;;
46355;SDS011;32066;49.474;11.106;2023-04-28T01:24:48;8.75;;;4.70;;
46355;SDS011;32066;49.474;11.106;2023-04-28T01:27:17;10.02;;;4.75;;
46355;SDS011;32066;49.474;11.106;2023-04-28T01:29:47;9.25;;;4.80;;
46355;SDS011;32066;49.474;11.106;2023-04-28T01:32:16;11.05;;;4.90;;
46355;SDS011;32066;49.474;11.106;2023-04-28T01:34:44;12.80;;;4.95;;
46355;SDS011;32066;49.474;11.106;2023-04-28T01:37:13;10.25;;;4.90;;
46355;SDS011;32066;49.474;11.106;2023-04-28T01:39:42;13.32;;;5.32;;
46355;SDS011;32066;49.474;11.106;2023-04-28T01:42:13;15.38;;;4.82;;
46355;SDS011;32066;49.474;11.106;2023-04-28T01:44:42;10.68;;;4.85;;
46355;SDS011;32066;49.474;11.106;2023-04-28T01:47:10;15.98;;;5.68;;
46355;SDS011;32066;49.474;11.106;2023-04-28T01:49:39;12.00;;;5.38;;
46355;SDS011;32066;49.474;11.106;2023-04-28T01:52:08;12.85;;;5.35;;
46355;SDS011;32066;49.474;11.106;2023-04-28T01:54:36;11.68;;;5.07;;
46355;SDS011;32066;49.474;11.106;2023-04-28T01:57:05;10.57;;;4.90;;
46355;SDS011;32066;49.474;11.106;2023-04-28T01:59:37;10.70;;;4.80;;
46355;SDS011;32066;49.474;11.106;2023-04-28T02:02:06;11.98;;;5.18;;
46355;SDS011;32066;49.474;11.106;2023-04-28T02:04:36;10.65;;;4.75;;
46355;SDS011;32066;49.474;11.106;2023-04-28T02:07:04;11.38;;;5.05;;
46355;SDS011;32066;49.474;11.106;2023-04-28T02:09:33;10.35;;;4.90;;
46355;SDS011;32066;49.474;11.106;2023-04-28T02:12:02;10.23;;;4.45;;
46355;SDS011;32066;49.474;11.106;2023-04-28T02:14:31;10.65;;;4.47;;
46355;SDS011;32066;49.474;11.106;2023-04-28T02:17:02;8.00;;;4.90;;
46355;SDS011;32066;49.474;11.106;2023-04-28T02:19:32;10.25;;;5.25;;
46355;SDS011;32066;49.474;11.106;2023-04-28T02:22:03;10.70;;;4.70;;
46355;SDS011;32066;49.474;11.106;2023-04-28T02:24:33;8.27;;;5.18;;
46355;SDS011;32066;49.474;11.106;2023-04-28T02:27:03;10.02;;;4.88;;
46355;SDS011;32066;49.474;11.106;2023-04-28T02:29:32;9.27;;;4.90;;
46355;SDS011;32066;49.474;11.106;2023-04-28T02:32:03;13.07;;;4.68;;
46355;SDS011;32066;49.474;11.106;2023-04-28T02:34:32;9.40;;;4.75;;
46355;SDS011;32066;49.474;11.106;2023-04-28T02:37:01;11.52;;;5.07;;
46355;SDS011;32066;49.474;11.106;2023-04-28T02:39:29;10.60;;;4.72;;
46355;SDS011;32066;49.474;11.106;2023-04-28T02:41:58;7.68;;;4.50;;
46355;SDS011;32066;49.474;11.106;2023-04-28T02:44:29;13.23;;;5.00;;
46355;SDS011;32066;49.474;11.106;2023-04-28T02:46:58;8.80;;;4.68;;
46355;SDS011;32066;49.474;11.106;2023-04-28T02:49:29;12.13;;;4.45;;
46355;SDS011;32066;49.474;11.106;2023-04-28T02:51:57;10.45;;;4.88;;
46355;SDS011;32066;49.474;11.106;2023-04-28T02:54:26;10.23;;;4.75;;
46355;SDS011;32066;49.474;11.106;2023-04-28T02:56:56;8.48;;;5.18;;
46355;SDS011;32066;49.474;11.106;2023-04-28T02:59:25;10.38;;;4.60;;
46355;SDS011;32066;49.474;11.106;2023-04-28T03:01:54;9.07;;;4.53;;
46355;SDS011;32066;49.474;11.106;2023-04-28T03:04:23;9.23;;;4.35;;
46355;SDS011;32066;49.474;11.106;2023-04-28T03:06:54;8.35;;;4.78;;
46355;SDS011;32066;49.474;11.106;2023-04-28T03:09:23;10.75;;;4.80;;
46355;SDS011;32066;49.474;11.106;2023-04-28T03:11:52;7.55;;;4.47;;
46355;SDS011;32066;49.474;11.106;2023-04-28T03:14:20;8.90;;;4.57;;
46355;SDS011;32066;49.474;11.106;2023-04-28T03:16:49;12.88;;;5.20;;
46355;SDS011;32066;49.474;11.106;2023-04-28T03:19:18;9.65;;;4.55;;
46355;SDS011;32066;49.474;11.106;2023-04-28T03:21:47;8.85;;;4.90;;
46355;SDS011;32066;49.474;11.106;2023-04-28T03:24:18;7.68;;;4.40;;
46355;SDS011;32066;49.474;11.106;2023-04-28T03:26:49;8.93;;;4.18;;
46355;SDS011;32066;49.474;11.106;2023-04-28T03:29:18;9.60;;;4.47;;
46355;SDS011;32066;49.474;11.106;2023-04-28T03:31:48;10.75;;;5.03;;
46355;SDS011;32066;49.474;11.106;2023-04-28T03:34:17;9.48;;;4.90;;
46355;SDS011;32066;49.474;11.106;2023-04-28T03:36:46;12.38;;;4.82;;
46355;SDS011;32066;49.474;11.106;2023-04-28T03:39:25;7.88;;;4.18;;
46355;SDS011;32066;49.474;11.106;2023-04-28T03:41:53;9.90;;;4.70;;
46355;SDS011;32066;49.474;11.106;2023-04-28T03:44:48;7.20;;;4.35;;
46355;SDS011;32066;49.474;11.106;2023-04-28T03:47:17;11.02;;;4.22;;
46355;SDS011;32066;49.474;11.106;2023-04-28T03:49:46;9.10;;;4.50;;
46355;SDS011;32066;49.474;11.106;2023-04-28T03:52:15;9.52;;;4.55;;
46355;SDS011;32066;49.474;11.106;2023-04-28T03:54:46;8.45;;;4.55;;
46355;SDS011;32066;49.474;11.106;2023-04-28T03:57:15;10.85;;;4.55;;
46355;SDS011;32066;49.474;11.106;2023-04-28T03:59:43;10.90;;;4.63;;
46355;SDS011;32066;49.474;11.106;2023-04-28T04:02:12;8.98;;;4.60;;
46355;SDS011;32066;49.474;11.106;2023-04-28T04:04:40;7.97;;;4.32;;
46355;SDS011;32066;49.474;11.106;2023-04-28T04:07:09;7.60;;;4.40;;
46355;SDS011;32066;49.474;11.106;2023-04-28T04:09:38;8.98;;;4.70;;
46355;SDS011;32066;49.474;11.106;2023-04-28T04:12:10;9.85;;;5.65;;
46355;SDS011;32066;49.474;11.106;2023-04-28T04:14:39;13.52;;;6.20;;
46355;SDS011;32066;49.474;11.106;2023-04-28T04:17:09;11.48;;;5.18;;
46355;SDS011;32066;49.474;11.106;2023-04-28T04:19:37;9.75;;;4.82;;
46355;SDS011;32066;49.474;11.106;2023-04-28T04:22:08;10.40;;;5.13;;
46355;SDS011;32066;49.474;11.106;2023-04-28T04:24:37;9.32;;;5.28;;
46355;SDS011;32066;49.474;11.106;2023-04-28T04:27:06;9.25;;;4.90;;
46355;SDS011;32066;49.474;11.106;2023-04-28T04:29:40;8.18;;;4.60;;
46355;SDS011;32066;49.474;11.106;2023-04-28T04:32:13;8.75;;;4.50;;
46355;SDS011;32066;49.474;11.106;2023-04-28T04:34:42;8.68;;;4.80;;
46355;SDS011;32066;49.474;11.106;2023-04-28T04:37:10;11.18;;;5.30;;
46355;SDS011;32066;49.474;11.106;2023-04-28T04:39:45;10.38;;;4.65;;
46355;SDS011;32066;49.474;11.106;2023-04-28T04:42:14;9.73;;;4.63;;
46355;SDS011;32066;49.474;11.106;2023-04-28T04:44:53;8.88;;;4.35;;
46355;SDS011;32066;49.474;11.106;2023-04-28T04:47:27;9.10;;;4.95;;
46355;SDS011;32066;49.474;11.106;2023-04-28T04:49:56;10.32;;;5.07;;
46355;SDS011;32066;49.474;11.106;2023-04-28T04:52:25;10.38;;;5.15;;
46355;SDS011;32066;49.474;11.106;2023-04-28T04:54:54;7.82;;;4.18;;
46355;SDS011;32066;49.474;11.106;2023-04-28T04:57:23;8.60;;;4.40;;
46355;SDS011;32066;49.474;11.106;2023-04-28T05:00:16;8.15;;;4.20;;
46355;SDS011;32066;49.474;11.106;2023-04-28T05:02:45;11.68;;;4.38;;
46355;SDS011;32066;49.474;11.106;2023-04-28T05:05:16;8.85;;;4.30;;
46355;SDS011;32066;49.474;11.106;2023-04-28T05:07:47;9.20;;;4.72;;
46355;SDS011;32066;49.474;11.106;2023-04-28T05:10:16;17.13;;;3.80;;
46355;SDS011;32066;49.474;11.106;2023-04-28T05:12:44;8.77;;;4.80;;
46355;SDS011;32066;49.474;11.106;2023-04-28T05:15:17;7.65;;;4.05;;
46355;SDS011;32066;49.474;11.106;2023-04-28T05:18:06;9.48;;;4.60;;
46355;SDS011;32066;49.474;11.106;2023-04-28T05:20:36;9.85;;;4.70;;
46355;SDS011;32066;49.474;11.106;2023-04-28T05:23:05;10.40;;;4.70;;
46355;SDS011;32066;49.474;11.106;2023-04-28T05:25:34;7.95;;;4.80;;
46355;SDS011;32066;49.474;11.106;2023-04-28T05:28:03;9.57;;;4.45;;
46355;SDS011;32066;49.474;11.106;2023-04-28T05:30:35;11.43;;;4.93;;
46355;SDS011;32066;49.474;11.106;2023-04-28T05:33:04;10.60;;;4.70;;
46355;SDS011;32066;49.474;11.106;2023-04-28T05:35:32;10.00;;;5.05;;
46355;SDS011;32066;49.474;11.106;2023-04-28T05:38:01;9.85;;;4.50;;
46355;SDS011;32066;49.474;11.106;2023-04-28T05:40:31;11.95;;;4.28;;
46355;SDS011;32066;49.474;11.106;2023-04-28T05:43:00;8.82;;;4.00;;
46355;SDS011;32066;49.474;11.106;2023-04-28T05:45:28;7.72;;;4.15;;
46355;SDS011;32066;49.474;11.106;2023-04-28T05:48:00;12.65;;;4.82;;
46355;SDS011;32066;49.474;11.106;2023-04-28T05:50:29;9.45;;;4.13;;
46355;SDS011;32066;49.474;11.106;2023-04-28T05:53:00;9.73;;;4.68;;
46355;SDS011;32066;49.474;11.106;2023-04-28T05:55:29;9.48;;;4.60;;
46355;SDS011;32066;49.474;11.106;2023-04-28T05:57:58;10.35;;;4.50;;
46355;SDS011;32066;49.474;11.106;2023-04-28T06:00:26;9.38;;;4.20;;
46355;SDS011;32066;49.474;11.106;2023-04-28T06:03:01;8.43;;;4.75;;
46355;SDS011;32066;49.474;11.106;2023-04-28T06:05:30;9.73;;;4.70;;
46355;SDS011;32066;49.474;11.106;2023-04-28T06:07:58;12.38;;;5.13;;
46355;SDS011;32066;49.474;11.106;2023-04-28T06:10:27;12.07;;;5.32;;
46355;SDS011;32066;49.474;11.106;2023-04-28T06:12:56;10.32;;;4.63;;
46355;SDS011;32066;49.474;11.106;2023-04-28T06:15:25;11.20;;;4.65;;
46355;SDS011;32066;49.474;11.106;2023-04-28T06:17:54;9.18;;;4.65;;
46355;SDS011;32066;49.474;11.106;2023-04-28T06:20:25;9.93;;;5.38;;
46355;SDS011;32066;49.474;11.106;2023-04-28T06:22:54;9.77;;;4.95;;
46355;SDS011;32066;49.474;11.106;2023-04-28T06:25:23;8.63;;;4.53;;
46355;SDS011;32066;49.474;11.106;2023-04-28T06:27:51;11.70;;;4.75;;
46355;SDS011;32066;49.474;11.106;2023-04-28T06:30:21;11.98;;;4.88;;
46355;SDS011;32066;49.474;11.106;2023-04-28T06:32:50;7.13;;;4.20;;
46355;SDS011;32066;49.474;11.106;2023-04-28T06:35:20;9.55;;;4.93;;
46355;SDS011;32066;49.474;11.106;2023-04-28T06:37:52;9.25;;;4.85;;
46355;SDS011;32066;49.474;11.106;2023-04-28T06:40:20;10.23;;;4.75;;
46355;SDS011;32066;49.474;11.106;2023-04-28T06:42:53;7.30;;;4.30;;
46355;SDS011;32066;49.474;11.106;2023-04-28T06:45:42;9.07;;;5.03;;
46355;SDS011;32066;49.474;11.106;2023-04-28T06:48:11;7.80;;;4.60;;
46355;SDS011;32066;49.474;11.106;2023-04-28T06:50:39;11.07;;;4.47;;
46355;SDS011;32066;49.474;11.106;2023-04-28T06:53:10;7.57;;;4.70;;
46355;SDS011;32066;49.474;11.106;2023-04-28T06:55:39;8.95;;;5.40;;
46355;SDS011;32066;49.474;11.106;2023-04-28T06:58:08;7.80;;;4.68;;
46355;SDS011;32066;49.474;11.106;2023-04-28T07:00:37;9.93;;;4.80;;
46355;SDS011;32066;49.474;11.106;2023-04-28T07:03:05;9.15;;;4.90;;
46355;SDS011;32066;49.474;11.106;2023-04-28T07:05:34;8.45;;;4.53;;
46355;SDS011;32066;49.474;11.106;2023-04-28T07:08:03;27.35;;;6.30;;
46355;SDS011;32066;49.474;11.106;2023-04-28T07:10:34;14.57;;;5.50;;
46355;SDS011;32066;49.474;11.106;2023-04-28T07:13:03;10.32;;;4.65;;
46355;SDS011;32066;49.474;11.106;2023-04-28T07:15:31;10.75;;;4.65;;
46355;SDS011;32066;49.474;11.106;2023-04-28T07:18:00;13.00;;;4.30;;
46355;SDS011;32066;49.474;11.106;2023-04-28T07:20:28;9.70;;;4.40;;
46355;SDS011;32066;49.474;11.106;2023-04-28T07:22:57;8.35;;;4.75;;
46355;SDS011;32066;49.474;11.106;2023-04-28T07:25:26;8.00;;;4.53;;
46355;SDS011;32066;49.474;11.106;2023-04-28T07:27:57;8.27;;;4.60;;
46355;SDS011;32066;49.474;11.106;2023-04-28T07:30:26;8.27;;;4.55;;
46355;SDS011;32066;49.474;11.106;2023-04-28T07:32:57;9.43;;;4.70;;
46355;SDS011;32066;49.474;11.106;2023-04-28T07:35:26;6.97;;;4.13;;
46355;SDS011;32066;49.474;11.106;2023-04-28T07:37:55;8.60;;;4.40;;
46355;SDS011;32066;49.474;11.106;2023-04-28T07:40:24;9.48;;;4.45;;
46355;SDS011;32066;49.474;11.106;2023-04-28T07:42:53;8.75;;;4.68;;
46355;SDS011;32066;49.474;11.106;2023-04-28T07:45:24;11.65;;;4.40;;
46355;SDS011;32066;49.474;11.106;2023-04-28T07:47:53;9.40;;;4.97;;
46355;SDS011;32066;49.474;11.106;2023-04-28T07:50:21;8.82;;;5.10;;
46355;SDS011;32066;49.474;11.106;2023-04-28T07:52:50;10.50;;;5.82;;
46355;SDS011;32066;49.474;11.106;2023-04-28T07:55:19;11.52;;;5.68;;
46355;SDS011;32066;49.474;11.106;2023-04-28T07:57:47;12.10;;;6.25;;
46355;SDS011;32066;49.474;11.106;2023-04-28T08:00:16;11.60;;;5.88;;
46355;SDS011;32066;49.474;11.106;2023-04-28T08:02:48;13.25;;;6.28;;
46355;SDS011;32066;49.474;11.106;2023-04-28T08:05:16;10.63;;;5.93;;
46355;SDS011;32066;49.474;11.106;2023-04-28T08:07:45;10.57;;;6.10;;
46355;SDS011;32066;49.474;11.106;2023-04-28T08:10:13;9.50;;;6.05;;
46355;SDS011;32066;49.474;11.106;2023-04-28T08:12:42;10.68;;;6.35;;
46355;SDS011;32066;49.474;11.106;2023-04-28T08:15:12;10.82;;;6.93;;
46355;SDS011;32066;49.474;11.106;2023-04-28T08:17:40;11.75;;;6.78;;
46355;SDS011;32066;49.474;11.106;2023-04-28T08:20:12;9.82;;;7.00;;
46355;SDS011;32066;49.474;11.106;2023-04-28T08:22:43;14.05;;;6.60;;
46355;SDS011;32066;49.474;11.106;2023-04-28T08:25:12;10.35;;;6.53;;
46355;SDS011;32066;49.474;11.106;2023-04-28T08:27:42;8.70;;;5.90;;
46355;SDS011;32066;49.474;11.106;2023-04-28T08:30:11;10.57;;;6.03;;
46355;SDS011;32066;49.474;11.106;2023-04-28T08:32:40;12.50;;;6.70;;
46355;SDS011;32066;49.474;11.106;2023-04-28T08:35:09;8.93;;;5.80;;
46355;SDS011;32066;49.474;11.106;2023-04-28T08:37:40;10.63;;;6.40;;
46355;SDS011;32066;49.474;11.106;2023-04-28T08:40:09;10.15;;;6.13;;
46355;SDS011;32066;49.474;11.106;2023-04-28T08:42:38;11.50;;;6.55;;
46355;SDS011;32066;49.474;11.106;2023-04-28T08:45:11;10.93;;;6.63;;
46355;SDS011;32066;49.474;11.106;2023-04-28T08:47:41;8.98;;;5.38;;
46355;SDS011;32066;49.474;11.106;2023-04-28T08:50:12;11.27;;;6.30;;
46355;SDS011;32066;49.474;11.106;2023-04-28T08:52:41;9.98;;;6.32;;
46355;SDS011;32066;49.474;11.106;2023-04-28T08:55:10;8.52;;;5.68;;
46355;SDS011;32066;49.474;11.106;2023-04-28T08:57:41;9.90;;;6.32;;
46355;SDS011;32066;49.474;11.106;2023-04-28T09:00:12;9.82;;;6.32;;
46355;SDS011;32066;49.474;11.106;2023-04-28T09:02:41;12.02;;;6.32;;
46355;SDS011;32066;49.474;11.106;2023-04-28T09:05:10;9.02;;;5.82;;
46355;SDS011;32066;49.474;11.106;2023-04-28T09:07:44;10.23;;;6.28;;
46355;SDS011;32066;49.474;11.106;2023-04-28T09:10:19;12.77;;;6.32;;
46355;SDS011;32066;49.474;11.106;2023-04-28T09:12:50;9.77;;;5.68;;
46355;SDS011;32066;49.474;11.106;2023-04-28T09:15:26;8.80;;;5.88;;
46355;SDS011;32066;49.474;11.106;2023-04-28T09:17:56;9.18;;;6.10;;
46355;SDS011;32066;49.474;11.106;2023-04-28T09:20:29;11.02;;;6.05;;
46355;SDS011;32066;49.474;11.106;2023-04-28T09:23:11;10.20;;;6.05;;
46355;SDS011;32066;49.474;11.106;2023-04-28T09:25:54;9.18;;;5.55;;
46355;SDS011;32066;49.474;11.106;2023-04-28T09:28:26;9.18;;;5.97;;
46355;SDS011;32066;49.474;11.106;2023-04-28T09:30:55;11.43;;;6.00;;
46355;SDS011;32066;49.474;11.106;2023-04-28T09:33:23;11.55;;;6.78;;
46355;SDS011;32066;49.474;11.106;2023-04-28T09:35:55;11.18;;;7.15;;
46355;SDS011;32066;49.474;11.106;2023-04-28T09:38:23;12.43;;;7.13;;
46355;SDS011;32066;49.474;11.106;2023-04-28T09:40:53;11.18;;;6.68;;
46355;SDS011;32066;49.474;11.106;2023-04-28T09:43:24;9.45;;;6.85;;
46355;SDS011;32066;49.474;11.106;2023-04-28T09:45:53;9.05;;;6.68;;
46355;SDS011;32066;49.474;11.106;2023-04-28T09:48:26;10.60;;;6.28;;
46355;SDS011;32066;49.474;11.106;2023-04-28T09:51:02;12.70;;;7.05;;
46355;SDS011;32066;49.474;11.106;2023-04-28T09:53:32;10.23;;;7.07;;
46355;SDS011;32066;49.474;11.106;2023-04-28T09:56:01;9.73;;;6.65;;
46355;SDS011;32066;49.474;11.106;2023-04-28T09:58:31;11.15;;;6.63;;
46355;SDS011;32066;49.474;11.106;2023-04-28T10:01:03;10.93;;;6.60;;
46355;SDS011;32066;49.474;11.106;2023-04-28T10:03:37;10.95;;;7.40;;
46355;SDS011;32066;49.474;11.106;2023-04-28T10:06:09;13.07;;;6.95;;
46355;SDS011;32066;49.474;11.106;2023-04-28T10:08:38;9.20;;;6.55;;
46355;SDS011;32066;49.474;11.106;2023-04-28T10:11:09;8.93;;;6.60;;
46355;SDS011;32066;49.474;11.106;2023-04-28T10:13:38;12.80;;;7.03;;
46355;SDS011;32066;49.474;11.106;2023-04-28T10:16:08;11.05;;;6.60;;
46355;SDS011;32066;49.474;11.106;2023-04-28T10:18:37;11.65;;;7.18;;
46355;SDS011;32066;49.474;11.106;2023-04-28T10:21:09;9.70;;;6.68;;
46355;SDS011;32066;49.474;11.106;2023-04-28T10:29:34;10.30;;;6.60;;
46355;SDS011;32066;49.474;11.106;2023-04-28T10:32:15;9.18;;;6.18;;
46355;SDS011;32066;49.474;11.106;2023-04-28T10:34:45;9.10;;;6.45;;
46355;SDS011;32066;49.474;11.106;2023-04-28T10:37:16;11.07;;;7.13;;
46355;SDS011;32066;49.474;11.106;2023-04-28T10:42:50;13.23;;;8.00;;
46355;SDS011;32066;49.474;11.106;2023-04-28T10:48:03;12.30;;;6.38;;
46355;SDS011;32066;49.474;11.106;2023-04-28T10:50:32;9.82;;;6.78;;
46355;SDS011;32066;49.474;11.106;2023-04-28T10:53:04;9.85;;;6.35;;
46355;SDS011;32066;49.474;11.106;2023-04-28T10:55:33;10.63;;;6.65;;
46355;SDS011;32066;49.474;11.106;2023-04-28T11:03:56;10.73;;;6.75;;
46355;SDS011;32066;49.474;11.106;2023-04-28T11:06:29;9.75;;;6.18;;
46355;SDS011;32066;49.474;11.106;2023-04-28T11:09:01;9.10;;;6.53;;
46355;SDS011;32066;49.474;11.106;2023-04-28T11:12:05;9.95;;;6.90;;
46355;SDS011;32066;49.474;11.106;2023-04-28T11:14:40;13.48;;;9.00;;
46355;SDS011;32066;49.474;11.106;2023-04-28T11:17:09;11.85;;;8.30;;
46355;SDS011;32066;49.474;11.106;2023-04-28T11:19:41;12.82;;;8.15;;
46355;SDS011;32066;49.474;11.106;2023-04-28T11:22:13;8.85;;;6.82;;
46355;SDS011;32066;49.474;11.106;2023-04-28T11:24:53;9.07;;;6.60;;
46355;SDS011;32066;49.474;11.106;2023-04-28T11:27:26;8.77;;;6.85;;
46355;SDS011;32066;49.474;11.106;2023-04-28T11:29:56;9.18;;;6.18;;
46355;SDS011;32066;49.474;11.106;2023-04-28T11:32:29;9.23;;;6.85;;
46355;SDS011;32066;49.474;11.106;2023-04-28T11:34:58;9.20;;;7.10;;
46355;SDS011;32066;49.474;11.106;2023-04-28T11:37:28;9.27;;;6.80;;
46355;SDS011;32066;49.474;11.106;2023-04-28T11:39:57;8.68;;;6.18;;
46355;SDS011;32066;49.474;11.106;2023-04-28T11:42:28;9.20;;;6.43;;
46355;SDS011;32066;49.474;11.106;2023-04-28T11:44:58;9.85;;;5.95;;
46355;SDS011;32066;49.474;11.106;2023-04-28T11:47:28;9.00;;;6.50;;
46355;SDS011;32066;49.474;11.106;2023-04-28T11:49:58;9.57;;;5.95;;
46355;SDS011;32066;49.474;11.106;2023-04-28T11:52:27;9.20;;;6.38;;
46355;SDS011;32066;49.474;11.106;2023-04-28T11:54:56;8.80;;;6.10;;
46355;SDS011;32066;49.474;11.106;2023-04-28T11:57:29;8.75;;;6.03;;
46355;SDS011;32066;49.474;11.106;2023-04-28T12:00:10;8.67;;;6.10;;
46355;SDS011;32066;49.474;11.106;2023-04-28T12:02:43;8.98;;;6.20;;
46355;SDS011;32066;49.474;11.106;2023-04-28T12:05:12;9.60;;;6.82;;
46355;SDS011;32066;49.474;11.106;2023-04-28T12:07:41;9.35;;;6.05;;
46355;SDS011;32066;49.474;11.106;2023-04-28T12:10:12;9.65;;;5.97;;
46355;SDS011;32066;49.474;11.106;2023-04-28T12:12:46;9.20;;;6.28;;
46355;SDS011;32066;49.474;11.106;2023-04-28T12:15:15;7.57;;;6.20;;
46355;SDS011;32066;49.474;11.106;2023-04-28T12:17:43;8.95;;;6.63;;
46355;SDS011;32066;49.474;11.106;2023-04-28T12:23:02;15.90;;;8.18;;
46355;SDS011;32066;49.474;11.106;2023-04-28T12:25:31;9.35;;;7.00;;
46355;SDS011;32066;49.474;11.106;2023-04-28T12:28:03;8.57;;;6.72;;
46355;SDS011;32066;49.474;11.106;2023-04-28T12:30:35;9.55;;;6.80;;
46355;SDS011;32066;49.474;11.106;2023-04-28T12:33:19;9.10;;;6.28;;
46355;SDS011;32066;49.474;11.106;2023-04-28T12:35:49;11.35;;;6.53;;
46355;SDS011;32066;49.474;11.106;2023-04-28T12:38:19;11.43;;;6.38;;
46355;SDS011;32066;49.474;11.106;2023-04-28T12:40:47;11.20;;;7.88;;
46355;SDS011;32066;49.474;11.106;2023-04-28T12:43:19;10.85;;;7.50;;
46355;SDS011;32066;49.474;11.106;2023-04-28T12:45:48;8.90;;;6.85;;
46355;SDS011;32066;49.474;11.106;2023-04-28T12:48:17;7.38;;;5.60;;
46355;SDS011;32066;49.474;11.106;2023-04-28T12:50:49;10.57;;;6.82;;
46355;SDS011;32066;49.474;11.106;2023-04-28T12:53:21;8.63;;;6.05;;
46355;SDS011;32066;49.474;11.106;2023-04-28T12:55:50;10.48;;;7.15;;
46355;SDS011;32066;49.474;11.106;2023-04-28T12:58:25;9.35;;;7.15;;
46355;SDS011;32066;49.474;11.106;2023-04-28T13:00:53;9.35;;;6.95;;
46355;SDS011;32066;49.474;11.106;2023-04-28T13:03:24;9.80;;;6.63;;
46355;SDS011;32066;49.474;11.106;2023-04-28T13:05:53;9.40;;;6.72;;
46355;SDS011;32066;49.474;11.106;2023-04-28T13:08:22;8.77;;;6.82;;
46355;SDS011;32066;49.474;11.106;2023-04-28T13:10:51;8.55;;;6.50;;
46355;SDS011;32066;49.474;11.106;2023-04-28T13:13:19;8.75;;;6.30;;
46355;SDS011;32066;49.474;11.106;2023-04-28T13:15:51;10.73;;;6.30;;
46355;SDS011;32066;49.474;11.106;2023-04-28T13:18:19;9.73;;;6.70;;
46355;SDS011;32066;49.474;11.106;2023-04-28T13:20:48;7.50;;;5.65;;
46355;SDS011;32066;49.474;11.106;2023-04-28T13:23:17;9.50;;;6.43;;
46355;SDS011;32066;49.474;11.106;2023-04-28T13:25:45;9.55;;;6.10;;
46355;SDS011;32066;49.474;11.106;2023-04-28T13:28:14;7.35;;;5.55;;
46355;SDS011;32066;49.474;11.106;2023-04-28T13:30:43;7.80;;;6.10;;
46355;SDS011;32066;49.474;11.106;2023-04-28T13:33:14;8.90;;;6.00;;
46355;SDS011;32066;49.474;11.106;2023-04-28T13:35:43;11.43;;;6.65;;
46355;SDS011;32066;49.474;11.106;2023-04-28T13:38:14;7.78;;;5.95;;
46355;SDS011;32066;49.474;11.106;2023-04-28T13:40:45;9.60;;;6.13;;
46355;SDS011;32066;49.474;11.106;2023-04-28T13:43:13;9.32;;;6.65;;
46355;SDS011;32066;49.474;11.106;2023-04-28T13:45:42;9.05;;;6.25;;
46355;SDS011;32066;49.474;11.106;2023-04-28T13:48:11;8.43;;;5.55;;
46355;SDS011;32066;49.474;11.106;2023-04-28T13:50:42;8.25;;;5.03;;
46355;SDS011;32066;49.474;11.106;2023-04-28T13:53:11;7.72;;;5.65;;
46355;SDS011;32066;49.474;11.106;2023-04-28T13:55:39;7.97;;;6.05;;
46355;SDS011;32066;49.474;11.106;2023-04-28T13:58:08;9.05;;;5.78;;
46355;SDS011;32066;49.474;11.106;2023-04-28T14:00:37;7.55;;;5.18;;
46355;SDS011;32066;49.474;11.106;2023-04-28T14:03:05;8.25;;;5.00;;
46355;SDS011;32066;49.474;11.106;2023-04-28T14:05:38;10.77;;;5.57;;
46355;SDS011;32066;49.474;11.106;2023-04-28T14:08:07;6.55;;;5.00;;
46355;SDS011;32066;49.474;11.106;2023-04-28T14:10:36;7.78;;;4.90;;
46355;SDS011;32066;49.474;11.106;2023-04-28T14:13:04;7.38;;;5.15;;
46355;SDS011;32066;49.474;11.106;2023-04-28T14:15:33;6.38;;;4.80;;
46355;SDS011;32066;49.474;11.106;2023-04-28T14:18:02;8.15;;;4.82;;
46355;SDS011;32066;49.474;11.106;2023-04-28T14:20:31;7.80;;;4.90;;
46355;SDS011;32066;49.474;11.106;2023-04-28T14:23:02;7.55;;;4.75;;
46355;SDS011;32066;49.474;11.106;2023-04-28T14:25:31;6.47;;;4.43;;
46355;SDS011;32066;49.474;11.106;2023-04-28T14:28:01;6.90;;;4.63;;
46355;SDS011;32066;49.474;11.106;2023-04-28T14:30:30;7.13;;;4.90;;
46355;SDS011;32066;49.474;11.106;2023-04-28T14:32:58;6.25;;;4.82;;
46355;SDS011;32066;49.474;11.106;2023-04-28T14:35:27;6.55;;;4.82;;
46355;SDS011;32066;49.474;11.106;2023-04-28T14:37:57;8.32;;;5.10;;
46355;SDS011;32066;49.474;11.106;2023-04-28T14:40:28;8.77;;;5.68;;
46355;SDS011;32066;49.474;11.106;2023-04-28T14:42:57;9.57;;;5.55;;
46355;SDS011;32066;49.474;11.106;2023-04-28T14:45:26;6.70;;;5.00;;
46355;SDS011;32066;49.474;11.106;2023-04-28T14:47:55;8.45;;;4.93;;
46355;SDS011;32066;49.474;11.106;2023-04-28T14:50:24;7.05;;;5.40;;
46355;SDS011;32066;49.474;11.106;2023-04-28T14:52:52;8.43;;;4.93;;
46355;SDS011;32066;49.474;11.106;2023-04-28T14:55:21;7.95;;;5.00;;
46355;SDS011;32066;49.474;11.106;2023-04-28T14:57:52;7.22;;;4.47;;
46355;SDS011;32066;49.474;11.106;2023-04-28T15:00:21;6.90;;;5.35;;
46355;SDS011;32066;49.474;11.106;2023-04-28T15:02:49;7.45;;;5.70;;
46355;SDS011;32066;49.474;11.106;2023-04-28T15:05:18;7.97;;;5.90;;